sensor_id;sensor_type;location;lat;lon;timestamp;P1;durP1;ratioP1;P2;durP2;ratioP2
45296;SDS011;31040;51.622;10.420;2022-09-02T00:01:30;2.95;;;1.23;;
45296;SDS011;31040;51.622;10.420;2022-09-02T00:04:02;2.20;;;1.20;;
45296;SDS011;31040;51.622;10.420;2022-09-02T00:06:31;1.95;;;0.98;;
45296;SDS011;31040;51.622;10.420;2022-09-02T00:08:59;1.52;;;1.10;;
45296;SDS011;31040;51.622;10.420;2022-09-02T00:11:28;2.20;;;1.00;;
45296;SDS011;31040;51.622;10.420;2022-09-02T00:13:57;2.10;;;1.20;;
45296;SDS011;31040;51.622;10.420;2022-09-02T00:16:25;1.83;;;1.40;;
45296;SDS011;31040;51.622;10.420;2022-09-02T00:18:52;2.80;;;1.20;;
45296;SDS011;31040;51.622;10.420;2022-09-02T00:21:21;3.83;;;1.20;;
45296;SDS011;31040;51.622;10.420;2022-09-02T00:23:50;1.90;;;1.08;;
45296;SDS011;31040;51.622;10.420;2022-09-02T00:26:17;1.85;;;1.10;;
45296;SDS011;31040;51.622;10.420;2022-09-02T00:28:45;3.60;;;1.40;;
45296;SDS011;31040;51.622;10.420;2022-09-02T00:31:21;1.40;;;1.20;;
45296;SDS011;31040;51.622;10.420;2022-09-02T00:33:48;1.98;;;1.33;;
45296;SDS011;31040;51.622;10.420;2022-09-02T00:36:16;2.33;;;1.45;;
45296;SDS011;31040;51.622;10.420;2022-09-02T00:38:44;2.05;;;1.00;;
45296;SDS011;31040;51.622;10.420;2022-09-02T00:41:13;2.50;;;1.33;;
45296;SDS011;31040;51.622;10.420;2022-09-02T00:43:42;3.28;;;1.10;;
45296;SDS011;31040;51.622;10.420;2022-09-02T00:46:11;5.53;;;1.77;;
45296;SDS011;31040;51.622;10.420;2022-09-02T00:48:39;1.80;;;1.10;;
45296;SDS011;31040;51.622;10.420;2022-09-02T00:51:08;2.00;;;1.25;;
45296;SDS011;31040;51.622;10.420;2022-09-02T00:53:37;1.63;;;1.20;;
45296;SDS011;31040;51.622;10.420;2022-09-02T00:56:06;1.08;;;0.93;;
45296;SDS011;31040;51.622;10.420;2022-09-02T00:58:35;1.35;;;1.20;;
45296;SDS011;31040;51.622;10.420;2022-09-02T01:01:03;4.10;;;1.58;;
45296;SDS011;31040;51.622;10.420;2022-09-02T01:03:31;1.80;;;1.30;;
45296;SDS011;31040;51.622;10.420;2022-09-02T01:05:59;1.27;;;1.17;;
45296;SDS011;31040;51.622;10.420;2022-09-02T01:08:29;1.25;;;1.20;;
45296;SDS011;31040;51.622;10.420;2022-09-02T01:11:00;1.45;;;1.30;;
45296;SDS011;31040;51.622;10.420;2022-09-02T01:13:36;1.88;;;1.20;;
45296;SDS011;31040;51.622;10.420;2022-09-02T01:18:31;3.20;;;1.38;;
45296;SDS011;31040;51.622;10.420;2022-09-02T01:21:01;1.60;;;1.50;;
45296;SDS011;31040;51.622;10.420;2022-09-02T01:23:29;2.90;;;1.50;;
45296;SDS011;31040;51.622;10.420;2022-09-02T01:26:00;1.45;;;1.30;;
45296;SDS011;31040;51.622;10.420;2022-09-02T01:28:27;2.28;;;1.30;;
45296;SDS011;31040;51.622;10.420;2022-09-02T01:30:54;3.63;;;1.17;;
45296;SDS011;31040;51.622;10.420;2022-09-02T01:33:22;2.85;;;1.23;;
45296;SDS011;31040;51.622;10.420;2022-09-02T01:35:51;2.00;;;1.23;;
45296;SDS011;31040;51.622;10.420;2022-09-02T01:38:20;1.27;;;1.17;;
45296;SDS011;31040;51.622;10.420;2022-09-02T01:40:47;2.80;;;1.42;;
45296;SDS011;31040;51.622;10.420;2022-09-02T01:43:17;2.13;;;1.45;;
45296;SDS011;31040;51.622;10.420;2022-09-02T01:45:45;1.35;;;1.15;;
45296;SDS011;31040;51.622;10.420;2022-09-02T01:48:13;1.63;;;1.20;;
45296;SDS011;31040;51.622;10.420;2022-09-02T01:50:49;1.58;;;1.48;;
45296;SDS011;31040;51.622;10.420;2022-09-02T01:53:16;1.67;;;1.58;;
45296;SDS011;31040;51.622;10.420;2022-09-02T01:55:44;2.33;;;1.70;;
45296;SDS011;31040;51.622;10.420;2022-09-02T01:58:12;2.85;;;1.50;;
45296;SDS011;31040;51.622;10.420;2022-09-02T02:00:39;1.48;;;1.38;;
45296;SDS011;31040;51.622;10.420;2022-09-02T02:03:07;2.55;;;1.30;;
45296;SDS011;31040;51.622;10.420;2022-09-02T02:05:34;2.38;;;1.60;;
45296;SDS011;31040;51.622;10.420;2022-09-02T02:08:02;2.47;;;1.60;;
45296;SDS011;31040;51.622;10.420;2022-09-02T02:10:30;1.50;;;1.40;;
45296;SDS011;31040;51.622;10.420;2022-09-02T02:12:58;2.35;;;1.30;;
45296;SDS011;31040;51.622;10.420;2022-09-02T02:15:26;1.73;;;1.63;;
45296;SDS011;31040;51.622;10.420;2022-09-02T02:17:52;2.40;;;1.48;;
45296;SDS011;31040;51.622;10.420;2022-09-02T02:20:20;2.17;;;1.73;;
45296;SDS011;31040;51.622;10.420;2022-09-02T02:22:48;2.55;;;1.50;;
45296;SDS011;31040;51.622;10.420;2022-09-02T02:25:16;1.60;;;1.50;;
45296;SDS011;31040;51.622;10.420;2022-09-02T02:27:44;2.75;;;1.80;;
45296;SDS011;31040;51.622;10.420;2022-09-02T02:30:12;2.25;;;1.88;;
45296;SDS011;31040;51.622;10.420;2022-09-02T02:32:40;3.05;;;1.52;;
45296;SDS011;31040;51.622;10.420;2022-09-02T02:35:08;1.50;;;1.40;;
45296;SDS011;31040;51.622;10.420;2022-09-02T02:37:36;1.95;;;1.50;;
45296;SDS011;31040;51.622;10.420;2022-09-02T02:40:07;1.73;;;1.63;;
45296;SDS011;31040;51.622;10.420;2022-09-02T02:42:37;2.83;;;1.80;;
45296;SDS011;31040;51.622;10.420;2022-09-02T02:45:05;3.65;;;1.95;;
45296;SDS011;31040;51.622;10.420;2022-09-02T02:47:41;5.00;;;2.28;;
45296;SDS011;31040;51.622;10.420;2022-09-02T02:50:13;5.22;;;2.15;;
45296;SDS011;31040;51.622;10.420;2022-09-02T02:52:41;2.97;;;1.70;;
45296;SDS011;31040;51.622;10.420;2022-09-02T02:55:09;2.28;;;2.08;;
45296;SDS011;31040;51.622;10.420;2022-09-02T02:57:37;1.50;;;1.40;;
45296;SDS011;31040;51.622;10.420;2022-09-02T03:00:11;2.20;;;2.00;;
45296;SDS011;31040;51.622;10.420;2022-09-02T03:02:39;2.08;;;1.83;;
45296;SDS011;31040;51.622;10.420;2022-09-02T03:05:07;2.35;;;1.70;;
45296;SDS011;31040;51.622;10.420;2022-09-02T03:07:35;2.55;;;2.22;;
45296;SDS011;31040;51.622;10.420;2022-09-02T03:10:03;2.20;;;1.98;;
45296;SDS011;31040;51.622;10.420;2022-09-02T03:12:32;3.03;;;2.72;;
45296;SDS011;31040;51.622;10.420;2022-09-02T03:15:00;4.30;;;2.30;;
45296;SDS011;31040;51.622;10.420;2022-09-02T03:17:28;2.88;;;1.70;;
45296;SDS011;31040;51.622;10.420;2022-09-02T03:19:55;2.47;;;1.80;;
45296;SDS011;31040;51.622;10.420;2022-09-02T03:22:27;2.08;;;1.85;;
45296;SDS011;31040;51.622;10.420;2022-09-02T03:24:54;2.15;;;1.73;;
45296;SDS011;31040;51.622;10.420;2022-09-02T03:27:22;3.47;;;2.08;;
45296;SDS011;31040;51.622;10.420;2022-09-02T03:29:50;2.15;;;1.90;;
45296;SDS011;31040;51.622;10.420;2022-09-02T03:32:17;2.17;;;1.98;;
45296;SDS011;31040;51.622;10.420;2022-09-02T03:34:45;2.30;;;1.90;;
45296;SDS011;31040;51.622;10.420;2022-09-02T03:37:12;2.05;;;1.80;;
45296;SDS011;31040;51.622;10.420;2022-09-02T03:39:40;2.00;;;1.88;;
45296;SDS011;31040;51.622;10.420;2022-09-02T03:42:07;2.50;;;2.10;;
45296;SDS011;31040;51.622;10.420;2022-09-02T03:44:45;2.00;;;1.80;;
45296;SDS011;31040;51.622;10.420;2022-09-02T03:47:12;1.95;;;1.85;;
45296;SDS011;31040;51.622;10.420;2022-09-02T03:49:46;2.45;;;1.92;;
45296;SDS011;31040;51.622;10.420;2022-09-02T03:52:13;2.72;;;2.25;;
45296;SDS011;31040;51.622;10.420;2022-09-02T03:54:41;3.80;;;3.08;;
45296;SDS011;31040;51.622;10.420;2022-09-02T03:57:08;3.20;;;2.42;;
45296;SDS011;31040;51.622;10.420;2022-09-02T03:59:35;2.47;;;2.00;;
45296;SDS011;31040;51.622;10.420;2022-09-02T04:02:03;2.95;;;2.38;;
45296;SDS011;31040;51.622;10.420;2022-09-02T04:04:31;2.50;;;2.30;;
45296;SDS011;31040;51.622;10.420;2022-09-02T04:06:59;3.00;;;2.60;;
45296;SDS011;31040;51.622;10.420;2022-09-02T04:09:26;2.38;;;2.17;;
45296;SDS011;31040;51.622;10.420;2022-09-02T04:11:54;2.33;;;2.00;;
45296;SDS011;31040;51.622;10.420;2022-09-02T04:14:21;2.22;;;2.05;;
45296;SDS011;31040;51.622;10.420;2022-09-02T04:16:49;3.55;;;1.90;;
45296;SDS011;31040;51.622;10.420;2022-09-02T04:19:16;2.60;;;2.25;;
45296;SDS011;31040;51.622;10.420;2022-09-02T04:21:44;2.85;;;2.50;;
45296;SDS011;31040;51.622;10.420;2022-09-02T04:24:11;2.90;;;2.50;;
45296;SDS011;31040;51.622;10.420;2022-09-02T04:26:39;3.30;;;2.20;;
45296;SDS011;31040;51.622;10.420;2022-09-02T04:29:10;2.63;;;2.30;;
45296;SDS011;31040;51.622;10.420;2022-09-02T04:31:38;2.50;;;2.30;;
45296;SDS011;31040;51.622;10.420;2022-09-02T04:34:05;3.10;;;2.40;;
45296;SDS011;31040;51.622;10.420;2022-09-02T04:36:33;4.45;;;2.65;;
45296;SDS011;31040;51.622;10.420;2022-09-02T04:39:01;3.28;;;2.35;;
45296;SDS011;31040;51.622;10.420;2022-09-02T04:41:29;3.10;;;2.50;;
45296;SDS011;31040;51.622;10.420;2022-09-02T04:43:57;3.58;;;2.50;;
45296;SDS011;31040;51.622;10.420;2022-09-02T04:46:25;2.50;;;2.30;;
45296;SDS011;31040;51.622;10.420;2022-09-02T04:49:00;2.67;;;2.30;;
45296;SDS011;31040;51.622;10.420;2022-09-02T04:51:28;4.05;;;2.40;;
45296;SDS011;31040;51.622;10.420;2022-09-02T04:53:55;2.97;;;2.60;;
45296;SDS011;31040;51.622;10.420;2022-09-02T04:56:25;2.78;;;2.50;;
45296;SDS011;31040;51.622;10.420;2022-09-02T04:58:53;5.60;;;2.65;;
45296;SDS011;31040;51.622;10.420;2022-09-02T05:01:22;2.95;;;2.25;;
45296;SDS011;31040;51.622;10.420;2022-09-02T05:03:50;2.60;;;2.40;;
45296;SDS011;31040;51.622;10.420;2022-09-02T05:06:20;2.42;;;2.22;;
45296;SDS011;31040;51.622;10.420;2022-09-02T05:08:48;2.85;;;2.20;;
45296;SDS011;31040;51.622;10.420;2022-09-02T05:11:17;3.55;;;2.97;;
45296;SDS011;31040;51.622;10.420;2022-09-02T05:13:46;3.03;;;2.53;;
45296;SDS011;31040;51.622;10.420;2022-09-02T05:16:20;3.08;;;2.50;;
45296;SDS011;31040;51.622;10.420;2022-09-02T05:18:49;3.13;;;2.30;;
45296;SDS011;31040;51.622;10.420;2022-09-02T05:21:17;3.15;;;2.45;;
45296;SDS011;31040;51.622;10.420;2022-09-02T05:23:45;3.05;;;2.13;;
45296;SDS011;31040;51.622;10.420;2022-09-02T05:26:12;2.40;;;2.20;;
45296;SDS011;31040;51.622;10.420;2022-09-02T05:28:40;5.00;;;2.58;;
45296;SDS011;31040;51.622;10.420;2022-09-02T05:31:10;3.22;;;2.58;;
45296;SDS011;31040;51.622;10.420;2022-09-02T05:33:38;2.97;;;2.22;;
45296;SDS011;31040;51.622;10.420;2022-09-02T05:36:13;3.20;;;2.30;;
45296;SDS011;31040;51.622;10.420;2022-09-02T05:38:41;2.20;;;2.00;;
45296;SDS011;31040;51.622;10.420;2022-09-02T05:41:13;3.08;;;2.20;;
45296;SDS011;31040;51.622;10.420;2022-09-02T05:43:41;3.85;;;2.30;;
45296;SDS011;31040;51.622;10.420;2022-09-02T05:46:13;3.17;;;2.30;;
45296;SDS011;31040;51.622;10.420;2022-09-02T05:48:43;4.13;;;2.35;;
45296;SDS011;31040;51.622;10.420;2022-09-02T05:51:42;2.60;;;2.10;;
45296;SDS011;31040;51.622;10.420;2022-09-02T05:54:14;3.60;;;2.33;;
45296;SDS011;31040;51.622;10.420;2022-09-02T05:56:43;7.60;;;2.20;;
45296;SDS011;31040;51.622;10.420;2022-09-02T05:59:11;2.28;;;2.00;;
45296;SDS011;31040;51.622;10.420;2022-09-02T06:01:39;1.52;;;1.42;;
45296;SDS011;31040;51.622;10.420;2022-09-02T06:04:07;2.60;;;1.98;;
45296;SDS011;31040;51.622;10.420;2022-09-02T06:06:35;3.00;;;2.25;;
45296;SDS011;31040;51.622;10.420;2022-09-02T06:09:04;2.25;;;2.05;;
45296;SDS011;31040;51.622;10.420;2022-09-02T06:11:34;2.08;;;1.80;;
45296;SDS011;31040;51.622;10.420;2022-09-02T06:14:06;1.92;;;1.77;;
45296;SDS011;31040;51.622;10.420;2022-09-02T06:16:34;3.05;;;1.80;;
45296;SDS011;31040;51.622;10.420;2022-09-02T06:19:02;2.78;;;2.13;;
45296;SDS011;31040;51.622;10.420;2022-09-02T06:21:30;3.20;;;1.90;;
45296;SDS011;31040;51.622;10.420;2022-09-02T06:23:58;1.60;;;1.50;;
45296;SDS011;31040;51.622;10.420;2022-09-02T06:26:26;3.40;;;1.83;;
45296;SDS011;31040;51.622;10.420;2022-09-02T06:28:53;2.42;;;2.10;;
45296;SDS011;31040;51.622;10.420;2022-09-02T06:31:21;1.88;;;1.70;;
45296;SDS011;31040;51.622;10.420;2022-09-02T06:33:52;3.95;;;1.50;;
45296;SDS011;31040;51.622;10.420;2022-09-02T06:36:21;4.18;;;1.48;;
45296;SDS011;31040;51.622;10.420;2022-09-02T06:38:54;1.50;;;1.40;;
45296;SDS011;31040;51.622;10.420;2022-09-02T06:41:24;1.67;;;1.45;;
45296;SDS011;31040;51.622;10.420;2022-09-02T06:43:55;2.65;;;1.30;;
45296;SDS011;31040;51.622;10.420;2022-09-02T06:46:26;2.25;;;1.40;;
45296;SDS011;31040;51.622;10.420;2022-09-02T06:48:54;1.42;;;1.33;;
45296;SDS011;31040;51.622;10.420;2022-09-02T06:51:23;1.35;;;1.30;;
45296;SDS011;31040;51.622;10.420;2022-09-02T06:53:51;1.40;;;1.30;;
45296;SDS011;31040;51.622;10.420;2022-09-02T06:56:18;1.40;;;1.30;;
45296;SDS011;31040;51.622;10.420;2022-09-02T06:58:46;1.20;;;1.10;;
45296;SDS011;31040;51.622;10.420;2022-09-02T07:01:20;2.50;;;1.48;;
45296;SDS011;31040;51.622;10.420;2022-09-02T07:03:48;1.30;;;1.20;;
45296;SDS011;31040;51.622;10.420;2022-09-02T07:06:35;2.20;;;1.30;;
45296;SDS011;31040;51.622;10.420;2022-09-02T07:09:04;0.95;;;0.95;;
45296;SDS011;31040;51.622;10.420;2022-09-02T07:11:32;1.85;;;1.45;;
45296;SDS011;31040;51.622;10.420;2022-09-02T07:14:00;2.60;;;1.10;;
45296;SDS011;31040;51.622;10.420;2022-09-02T07:16:29;4.10;;;1.52;;
45296;SDS011;31040;51.622;10.420;2022-09-02T07:18:57;1.48;;;1.38;;
45296;SDS011;31040;51.622;10.420;2022-09-02T07:21:27;1.23;;;0.90;;
45296;SDS011;31040;51.622;10.420;2022-09-02T07:23:58;1.63;;;1.08;;
45296;SDS011;31040;51.622;10.420;2022-09-02T07:26:27;1.13;;;1.02;;
45296;SDS011;31040;51.622;10.420;2022-09-02T07:28:54;1.90;;;1.00;;
45296;SDS011;31040;51.622;10.420;2022-09-02T07:31:22;1.10;;;1.00;;
45296;SDS011;31040;51.622;10.420;2022-09-02T07:33:50;2.00;;;1.17;;
45296;SDS011;31040;51.622;10.420;2022-09-02T07:36:17;2.78;;;1.30;;
45296;SDS011;31040;51.622;10.420;2022-09-02T07:38:47;1.60;;;0.95;;
45296;SDS011;31040;51.622;10.420;2022-09-02T07:41:14;1.33;;;1.23;;
45296;SDS011;31040;51.622;10.420;2022-09-02T07:43:42;1.65;;;1.50;;
45296;SDS011;31040;51.622;10.420;2022-09-02T07:46:16;1.50;;;1.20;;
45296;SDS011;31040;51.622;10.420;2022-09-02T07:48:44;5.25;;;1.65;;
45296;SDS011;31040;51.622;10.420;2022-09-02T07:51:16;1.00;;;0.95;;
45296;SDS011;31040;51.622;10.420;2022-09-02T07:53:44;2.15;;;0.98;;
45296;SDS011;31040;51.622;10.420;2022-09-02T07:56:12;1.60;;;1.30;;
45296;SDS011;31040;51.622;10.420;2022-09-02T07:58:41;4.45;;;1.63;;
45296;SDS011;31040;51.622;10.420;2022-09-02T08:06:07;2.85;;;1.00;;
45296;SDS011;31040;51.622;10.420;2022-09-02T08:08:35;1.73;;;1.48;;
45296;SDS011;31040;51.622;10.420;2022-09-02T08:11:03;2.03;;;1.27;;
45296;SDS011;31040;51.622;10.420;2022-09-02T08:13:30;2.03;;;1.23;;
45296;SDS011;31040;51.622;10.420;2022-09-02T08:15:58;1.83;;;1.30;;
45296;SDS011;31040;51.622;10.420;2022-09-02T08:18:26;1.80;;;1.33;;
45296;SDS011;31040;51.622;10.420;2022-09-02T08:20:53;1.20;;;1.10;;
45296;SDS011;31040;51.622;10.420;2022-09-02T08:23:21;1.33;;;1.20;;
45296;SDS011;31040;51.622;10.420;2022-09-02T08:26:02;4.10;;;1.30;;
45296;SDS011;31040;51.622;10.420;2022-09-02T08:28:31;1.55;;;1.30;;
45296;SDS011;31040;51.622;10.420;2022-09-02T08:30:59;4.18;;;1.48;;
45296;SDS011;31040;51.622;10.420;2022-09-02T08:33:30;3.13;;;1.23;;
45296;SDS011;31040;51.622;10.420;2022-09-02T08:36:07;4.72;;;1.17;;
45296;SDS011;31040;51.622;10.420;2022-09-02T08:38:37;1.73;;;1.23;;
45296;SDS011;31040;51.622;10.420;2022-09-02T08:43:51;2.63;;;1.45;;
45296;SDS011;31040;51.622;10.420;2022-09-02T08:46:20;2.72;;;1.52;;
45296;SDS011;31040;51.622;10.420;2022-09-02T08:48:52;1.73;;;1.50;;
45296;SDS011;31040;51.622;10.420;2022-09-02T08:56:39;2.92;;;1.30;;
45296;SDS011;31040;51.622;10.420;2022-09-02T08:59:07;5.38;;;1.58;;
45296;SDS011;31040;51.622;10.420;2022-09-02T09:11:47;0.93;;;0.93;;
45296;SDS011;31040;51.622;10.420;2022-09-02T09:14:25;1.25;;;1.15;;
45296;SDS011;31040;51.622;10.420;2022-09-02T09:19:27;1.75;;;1.58;;
45296;SDS011;31040;51.622;10.420;2022-09-02T09:21:58;1.40;;;1.30;;
45296;SDS011;31040;51.622;10.420;2022-09-02T09:26:59;1.83;;;1.10;;
45296;SDS011;31040;51.622;10.420;2022-09-02T09:29:30;2.05;;;1.48;;
45296;SDS011;31040;51.622;10.420;2022-09-02T09:31:58;1.55;;;1.02;;
45296;SDS011;31040;51.622;10.420;2022-09-02T09:34:53;1.63;;;1.38;;
45296;SDS011;31040;51.622;10.420;2022-09-02T09:37:26;3.13;;;1.52;;
45296;SDS011;31040;51.622;10.420;2022-09-02T09:40:00;1.40;;;1.30;;
45296;SDS011;31040;51.622;10.420;2022-09-02T09:42:34;2.90;;;1.38;;
45296;SDS011;31040;51.622;10.420;2022-09-02T09:45:46;2.60;;;1.33;;
45296;SDS011;31040;51.622;10.420;2022-09-02T09:50:33;1.30;;;1.20;;
45296;SDS011;31040;51.622;10.420;2022-09-02T09:55:54;1.95;;;1.27;;
45296;SDS011;31040;51.622;10.420;2022-09-02T09:58:22;2.80;;;1.40;;
45296;SDS011;31040;51.622;10.420;2022-09-02T10:00:51;2.17;;;1.25;;
45296;SDS011;31040;51.622;10.420;2022-09-02T10:05:58;2.70;;;1.30;;
45296;SDS011;31040;51.622;10.420;2022-09-02T10:11:36;2.75;;;1.20;;
45296;SDS011;31040;51.622;10.420;2022-09-02T10:14:07;1.25;;;1.10;;
45296;SDS011;31040;51.622;10.420;2022-09-02T10:16:38;4.80;;;1.50;;
45296;SDS011;31040;51.622;10.420;2022-09-02T10:24:36;3.38;;;1.20;;
45296;SDS011;31040;51.622;10.420;2022-09-02T10:27:07;2.00;;;1.10;;
45296;SDS011;31040;51.622;10.420;2022-09-02T10:30:39;3.08;;;1.08;;
45296;SDS011;31040;51.622;10.420;2022-09-02T10:35:28;1.67;;;1.27;;
45296;SDS011;31040;51.622;10.420;2022-09-02T10:40:38;2.15;;;0.98;;
45296;SDS011;31040;51.622;10.420;2022-09-02T10:43:58;2.58;;;1.30;;
45296;SDS011;31040;51.622;10.420;2022-09-02T10:45:59;2.70;;;1.40;;
45296;SDS011;31040;51.622;10.420;2022-09-02T10:51:05;1.05;;;1.00;;
45296;SDS011;31040;51.622;10.420;2022-09-02T10:56:24;1.90;;;1.20;;
45296;SDS011;31040;51.622;10.420;2022-09-02T10:58:54;1.15;;;1.10;;
45296;SDS011;31040;51.622;10.420;2022-09-02T11:04:07;1.73;;;0.93;;
45296;SDS011;31040;51.622;10.420;2022-09-02T11:06:38;1.42;;;0.93;;
45296;SDS011;31040;51.622;10.420;2022-09-02T11:11:58;1.98;;;1.25;;
45296;SDS011;31040;51.622;10.420;2022-09-02T11:22:56;3.67;;;1.17;;
45296;SDS011;31040;51.622;10.420;2022-09-02T11:25:33;1.73;;;1.23;;
45296;SDS011;31040;51.622;10.420;2022-09-02T11:30:52;2.05;;;1.10;;
45296;SDS011;31040;51.622;10.420;2022-09-02T11:33:25;3.35;;;1.33;;
45296;SDS011;31040;51.622;10.420;2022-09-02T11:35:54;1.70;;;1.15;;
45296;SDS011;31040;51.622;10.420;2022-09-02T11:38:46;2.88;;;1.10;;
45296;SDS011;31040;51.622;10.420;2022-09-02T11:54:34;3.70;;;1.48;;
45296;SDS011;31040;51.622;10.420;2022-09-02T11:57:04;1.83;;;1.43;;
45296;SDS011;31040;51.622;10.420;2022-09-02T12:02:37;1.58;;;1.10;;
45296;SDS011;31040;51.622;10.420;2022-09-02T12:07:56;2.78;;;0.90;;
45296;SDS011;31040;51.622;10.420;2022-09-02T12:18:41;1.40;;;1.27;;
45296;SDS011;31040;51.622;10.420;2022-09-02T12:21:16;6.10;;;1.60;;
45296;SDS011;31040;51.622;10.420;2022-09-02T12:31:50;2.00;;;1.17;;
45296;SDS011;31040;51.622;10.420;2022-09-02T12:36:56;2.60;;;1.00;;
45296;SDS011;31040;51.622;10.420;2022-09-02T12:49:47;2.03;;;0.90;;
45296;SDS011;31040;51.622;10.420;2022-09-02T12:55:13;1.20;;;1.10;;
45296;SDS011;31040;51.622;10.420;2022-09-02T12:57:42;1.17;;;1.08;;
45296;SDS011;31040;51.622;10.420;2022-09-02T13:00:14;0.90;;;0.90;;
45296;SDS011;31040;51.622;10.420;2022-09-02T13:21:10;1.17;;;0.93;;
45296;SDS011;31040;51.622;10.420;2022-09-02T13:34:31;2.38;;;1.00;;
45296;SDS011;31040;51.622;10.420;2022-09-02T13:36:58;0.80;;;0.80;;
45296;SDS011;31040;51.622;10.420;2022-09-02T13:39:26;1.88;;;1.02;;
45296;SDS011;31040;51.622;10.420;2022-09-02T13:41:54;2.08;;;1.00;;
45296;SDS011;31040;51.622;10.420;2022-09-02T13:44:26;1.10;;;0.98;;
45296;SDS011;31040;51.622;10.420;2022-09-02T13:47:04;7.43;;;1.63;;
45296;SDS011;31040;51.622;10.420;2022-09-02T13:49:39;1.15;;;1.00;;
45296;SDS011;31040;51.622;10.420;2022-09-02T13:52:11;1.80;;;0.95;;
45296;SDS011;31040;51.622;10.420;2022-09-02T13:54:43;1.13;;;0.95;;
45296;SDS011;31040;51.622;10.420;2022-09-02T13:57:12;1.50;;;0.82;;
45296;SDS011;31040;51.622;10.420;2022-09-02T13:59:47;2.03;;;1.10;;
45296;SDS011;31040;51.622;10.420;2022-09-02T14:02:20;2.55;;;0.80;;
45296;SDS011;31040;51.622;10.420;2022-09-02T14:04:48;2.50;;;0.93;;
45296;SDS011;31040;51.622;10.420;2022-09-02T14:07:18;3.63;;;1.10;;
45296;SDS011;31040;51.622;10.420;2022-09-02T14:09:47;3.35;;;1.25;;
45296;SDS011;31040;51.622;10.420;2022-09-02T14:12:15;1.80;;;0.93;;
45296;SDS011;31040;51.622;10.420;2022-09-02T14:14:44;2.50;;;1.10;;
45296;SDS011;31040;51.622;10.420;2022-09-02T14:19:46;1.63;;;1.10;;
45296;SDS011;31040;51.622;10.420;2022-09-02T14:22:18;1.25;;;0.90;;
45296;SDS011;31040;51.622;10.420;2022-09-02T14:24:47;1.52;;;1.00;;
45296;SDS011;31040;51.622;10.420;2022-09-02T14:27:16;1.13;;;0.93;;
45296;SDS011;31040;51.622;10.420;2022-09-02T14:29:44;1.30;;;0.98;;
45296;SDS011;31040;51.622;10.420;2022-09-02T14:32:14;2.42;;;1.05;;
45296;SDS011;31040;51.622;10.420;2022-09-02T14:34:43;1.85;;;0.88;;
45296;SDS011;31040;51.622;10.420;2022-09-02T14:42:50;6.20;;;1.38;;
45296;SDS011;31040;51.622;10.420;2022-09-02T14:47:50;2.40;;;1.08;;
45296;SDS011;31040;51.622;10.420;2022-09-02T14:50:18;3.25;;;1.17;;
45296;SDS011;31040;51.622;10.420;2022-09-02T14:52:57;1.40;;;1.00;;
45296;SDS011;31040;51.622;10.420;2022-09-02T14:55:44;2.00;;;0.90;;
45296;SDS011;31040;51.622;10.420;2022-09-02T14:58:13;1.65;;;0.95;;
45296;SDS011;31040;51.622;10.420;2022-09-02T15:00:42;3.90;;;1.02;;
45296;SDS011;31040;51.622;10.420;2022-09-02T15:03:12;1.77;;;1.00;;
45296;SDS011;31040;51.622;10.420;2022-09-02T15:05:40;1.95;;;1.33;;
45296;SDS011;31040;51.622;10.420;2022-09-02T15:08:08;23.90;;;2.85;;
45296;SDS011;31040;51.622;10.420;2022-09-02T15:10:36;4.43;;;1.23;;
45296;SDS011;31040;51.622;10.420;2022-09-02T15:13:09;1.65;;;1.00;;
45296;SDS011;31040;51.622;10.420;2022-09-02T15:15:39;1.88;;;1.02;;
45296;SDS011;31040;51.622;10.420;2022-09-02T15:18:07;1.70;;;1.00;;
45296;SDS011;31040;51.622;10.420;2022-09-02T15:20:34;1.00;;;0.90;;
45296;SDS011;31040;51.622;10.420;2022-09-02T15:23:02;1.02;;;0.70;;
45296;SDS011;31040;51.622;10.420;2022-09-02T15:25:29;3.08;;;0.90;;
45296;SDS011;31040;51.622;10.420;2022-09-02T15:27:57;0.90;;;0.80;;
45296;SDS011;31040;51.622;10.420;2022-09-02T15:30:25;2.80;;;1.10;;
45296;SDS011;31040;51.622;10.420;2022-09-02T15:32:52;2.38;;;1.02;;
45296;SDS011;31040;51.622;10.420;2022-09-02T15:35:20;1.77;;;0.80;;
45296;SDS011;31040;51.622;10.420;2022-09-02T15:37:48;3.00;;;0.90;;
45296;SDS011;31040;51.622;10.420;2022-09-02T15:40:16;3.45;;;0.80;;
45296;SDS011;31040;51.622;10.420;2022-09-02T15:42:43;3.65;;;1.02;;
45296;SDS011;31040;51.622;10.420;2022-09-02T15:45:11;3.05;;;0.85;;
45296;SDS011;31040;51.622;10.420;2022-09-02T15:47:38;0.75;;;0.70;;
45296;SDS011;31040;51.622;10.420;2022-09-02T15:50:08;1.38;;;0.90;;
45296;SDS011;31040;51.622;10.420;2022-09-02T15:52:39;1.65;;;0.93;;
45296;SDS011;31040;51.622;10.420;2022-09-02T15:55:07;3.35;;;1.20;;
45296;SDS011;31040;51.622;10.420;2022-09-02T15:57:35;1.05;;;0.80;;
45296;SDS011;31040;51.622;10.420;2022-09-02T16:00:03;3.75;;;0.90;;
45296;SDS011;31040;51.622;10.420;2022-09-02T16:02:36;1.95;;;0.73;;
45296;SDS011;31040;51.622;10.420;2022-09-02T16:05:03;3.80;;;1.05;;
45296;SDS011;31040;51.622;10.420;2022-09-02T16:07:31;1.17;;;0.88;;
45296;SDS011;31040;51.622;10.420;2022-09-02T16:09:59;1.10;;;0.80;;
45296;SDS011;31040;51.622;10.420;2022-09-02T16:12:29;3.42;;;0.93;;
45296;SDS011;31040;51.622;10.420;2022-09-02T16:14:57;2.28;;;0.90;;
45296;SDS011;31040;51.622;10.420;2022-09-02T16:17:25;3.60;;;0.90;;
45296;SDS011;31040;51.622;10.420;2022-09-02T16:22:50;5.20;;;0.90;;
45296;SDS011;31040;51.622;10.420;2022-09-02T16:25:27;6.50;;;1.30;;
45296;SDS011;31040;51.622;10.420;2022-09-02T16:27:54;1.92;;;0.90;;
45296;SDS011;31040;51.622;10.420;2022-09-02T16:30:22;4.22;;;1.45;;
45296;SDS011;31040;51.622;10.420;2022-09-02T16:32:51;1.38;;;0.90;;
45296;SDS011;31040;51.622;10.420;2022-09-02T16:35:19;2.17;;;0.70;;
45296;SDS011;31040;51.622;10.420;2022-09-02T16:37:47;4.00;;;1.17;;
45296;SDS011;31040;51.622;10.420;2022-09-02T16:40:15;2.67;;;0.80;;
45296;SDS011;31040;51.622;10.420;2022-09-02T16:42:47;2.90;;;0.80;;
45296;SDS011;31040;51.622;10.420;2022-09-02T16:45:14;2.58;;;0.77;;
45296;SDS011;31040;51.622;10.420;2022-09-02T16:47:42;1.60;;;0.98;;
45296;SDS011;31040;51.622;10.420;2022-09-02T16:50:09;1.00;;;0.90;;
45296;SDS011;31040;51.622;10.420;2022-09-02T16:52:38;2.30;;;0.93;;
45296;SDS011;31040;51.622;10.420;2022-09-02T16:55:06;0.73;;;0.73;;
45296;SDS011;31040;51.622;10.420;2022-09-02T16:57:34;4.47;;;0.80;;
45296;SDS011;31040;51.622;10.420;2022-09-02T17:00:01;1.30;;;0.60;;
45296;SDS011;31040;51.622;10.420;2022-09-02T17:02:29;0.70;;;0.70;;
45296;SDS011;31040;51.622;10.420;2022-09-02T17:04:56;2.65;;;0.80;;
45296;SDS011;31040;51.622;10.420;2022-09-02T17:07:24;1.55;;;0.90;;
45296;SDS011;31040;51.622;10.420;2022-09-02T17:09:51;0.77;;;0.70;;
45296;SDS011;31040;51.622;10.420;2022-09-02T17:12:19;2.42;;;1.00;;
45296;SDS011;31040;51.622;10.420;2022-09-02T17:14:46;2.55;;;0.88;;
45296;SDS011;31040;51.622;10.420;2022-09-02T17:17:13;0.73;;;0.60;;
45296;SDS011;31040;51.622;10.420;2022-09-02T17:19:42;0.88;;;0.70;;
45296;SDS011;31040;51.622;10.420;2022-09-02T17:22:10;0.57;;;0.52;;
45296;SDS011;31040;51.622;10.420;2022-09-02T17:24:37;0.70;;;0.70;;
45296;SDS011;31040;51.622;10.420;2022-09-02T17:27:07;2.35;;;0.50;;
45296;SDS011;31040;51.622;10.420;2022-09-02T17:29:34;2.05;;;0.70;;
45296;SDS011;31040;51.622;10.420;2022-09-02T17:32:17;4.50;;;1.52;;
45296;SDS011;31040;51.622;10.420;2022-09-02T17:34:46;2.67;;;1.00;;
45296;SDS011;31040;51.622;10.420;2022-09-02T17:37:14;6.78;;;1.40;;